createdAt,value
2022-09-23T03:02:37.329Z,999.90
2022-09-23T03:07:49.175Z,999.90
2022-09-23T03:12:58.558Z,999.90
2022-09-23T03:18:10.511Z,0.30
2022-09-23T03:23:14.122Z,0.75
2022-09-23T03:28:17.943Z,20.10
2022-09-23T03:33:28.490Z,0.40
2022-09-23T03:38:36.716Z,0.20
2022-09-23T03:43:39.820Z,78.43
2022-09-23T03:48:42.873Z,16.80
2022-09-23T03:53:44.489Z,0.30
2022-09-23T03:58:46.145Z,0.40
2022-09-23T04:03:49.205Z,0.30
2022-09-23T04:08:50.903Z,0.20
2022-09-23T04:13:52.570Z,0.30
2022-09-23T04:18:55.571Z,0.30
2022-09-23T04:23:57.332Z,0.30
2022-09-23T04:28:59.283Z,0.32
2022-09-23T04:34:02.444Z,294.08
2022-09-23T04:39:04.637Z,54.85
2022-09-23T04:44:06.464Z,11.20
2022-09-23T04:49:09.532Z,999.90
2022-09-23T04:54:12.110Z,87.43
2022-09-23T04:59:13.906Z,999.90
2022-09-23T05:04:19.544Z,999.90
2022-09-23T05:09:21.229Z,38.80
2022-09-23T05:14:23.768Z,999.90
2022-09-23T05:19:27.325Z,999.90
2022-09-23T05:24:28.977Z,999.90
2022-09-23T05:29:30.640Z,0.60
2022-09-23T05:34:33.729Z,21.15
2022-09-23T05:39:35.475Z,999.90
2022-09-23T05:44:38.430Z,0.35
2022-09-23T05:49:58.701Z,999.90
2022-09-23T05:55:01.126Z,999.90
2022-09-23T06:00:03.908Z,999.90
2022-09-23T06:05:07.615Z,999.90
2022-09-23T06:10:09.483Z,999.90
2022-09-23T06:15:11.368Z,999.90
2022-09-23T06:20:14.511Z,999.90
2022-09-23T06:25:16.549Z,999.90
2022-09-23T06:30:18.205Z,999.90
2022-09-23T06:35:27.432Z,0.80
2022-09-23T06:40:29.489Z,999.90
2022-09-23T06:45:31.222Z,999.90
2022-09-23T06:50:34.277Z,999.90
2022-09-23T06:55:35.953Z,999.90
2022-09-23T07:00:37.735Z,999.90
2022-09-23T07:05:41.029Z,999.90
2022-09-23T07:10:42.714Z,39.20
2022-09-23T07:15:49.448Z,0.40
2022-09-23T07:20:53.231Z,999.90
2022-09-23T07:25:58.506Z,83.07
2022-09-23T07:31:03.879Z,287.48
2022-09-23T07:36:09.574Z,41.13
2022-09-23T07:41:13.744Z,15.13
2022-09-23T07:46:17.492Z,34.15
2022-09-23T07:51:25.079Z,21.55
2022-09-23T07:56:30.132Z,19.67
2022-09-23T08:01:34.299Z,28.85
2022-09-23T08:06:40.768Z,71.28
2022-09-23T08:11:42.587Z,769.47
2022-09-23T08:16:45.085Z,17.25
2022-09-23T08:21:48.124Z,15.65
2022-09-23T08:26:51.256Z,32.67
2022-09-23T08:31:53.735Z,21.02
2022-09-23T08:36:56.826Z,542.28
2022-09-23T08:42:16.130Z,17.08
2022-09-23T08:47:23.209Z,17.10
2022-09-23T08:52:32.650Z,14.27
2022-09-23T08:58:23.404Z,15.30
2022-09-23T09:03:22.155Z,30.58
2022-09-23T09:08:32.434Z,22.60
2022-09-23T09:13:37.663Z,36.55
2022-09-23T09:23:52.160Z,48.93
2022-09-23T09:29:02.531Z,999.90
2022-09-23T09:34:24.212Z,999.90
2022-09-23T09:39:27.702Z,999.90
2022-09-23T09:44:37.024Z,999.90
2022-09-23T09:49:43.608Z,999.90
2022-09-23T09:54:46.696Z,999.90
2022-09-23T09:59:48.359Z,0.20
2022-09-23T10:04:56.960Z,0.20
2022-09-23T10:10:31.932Z,999.90
2022-09-23T10:15:44.915Z,999.90
2022-09-23T10:20:48.289Z,999.90
2022-09-23T10:25:59.072Z,999.90
2022-09-23T10:31:05.258Z,999.90
2022-09-23T10:36:09.742Z,999.90
2022-09-23T10:41:24.529Z,999.90
2022-09-23T10:46:28.667Z,999.90
2022-09-23T10:51:35.985Z,999.90
2022-09-23T10:56:42.796Z,999.90
2022-09-23T11:01:51.632Z,999.90
2022-09-23T11:07:16.108Z,27.75
2022-09-23T11:12:30.494Z,18.05
2022-09-23T11:17:49.517Z,20.62
2022-09-23T11:23:15.584Z,16.98
2022-09-23T11:28:53.045Z,999.90
2022-09-23T11:34:20.622Z,999.90
2022-09-23T11:39:26.809Z,36.05
2022-09-23T11:44:35.447Z,999.90
2022-09-23T11:49:40.993Z,999.90
2022-09-23T11:54:45.680Z,757.00
2022-09-23T11:59:53.882Z,999.90
2022-09-23T12:05:01.565Z,999.90
2022-09-23T12:10:07.265Z,999.90
2022-09-23T12:15:20.101Z,999.90
2022-09-23T12:20:45.680Z,999.90
2022-09-23T12:30:54.045Z,999.90
2022-09-23T12:36:02.511Z,999.90
2022-09-23T12:41:23.208Z,52.55
2022-09-23T12:46:27.564Z,57.15
2022-09-23T12:51:30.547Z,999.90
2022-09-23T12:57:00.445Z,31.60
2022-09-23T13:07:32.141Z,999.90
2022-09-23T13:12:37.829Z,999.90
2022-09-23T13:17:40.578Z,999.90
2022-09-23T13:23:16.754Z,999.90
2022-09-23T13:28:26.873Z,999.90
2022-09-23T13:33:34.727Z,999.90
2022-09-23T13:38:37.804Z,999.90
2022-09-23T13:43:42.334Z,999.90
2022-09-23T13:48:45.780Z,999.90
2022-09-23T13:53:54.480Z,999.90
2022-09-23T13:59:20.412Z,999.90
2022-09-23T14:04:26.145Z,999.90
2022-09-23T14:09:30.178Z,28.85
2022-09-23T14:14:35.343Z,999.90
2022-09-23T14:19:37.509Z,27.55
2022-09-23T14:24:40.703Z,69.57
2022-09-23T14:29:44.746Z,999.90
2022-09-23T14:34:50.097Z,24.45
2022-09-23T14:39:57.565Z,999.90
2022-09-23T14:44:59.591Z,999.90
2022-09-23T14:50:03.871Z,999.90
2022-09-23T14:55:15.635Z,999.90
2022-09-23T15:00:19.585Z,999.90
2022-09-23T15:05:32.087Z,999.90
2022-09-23T15:10:37.789Z,999.90
2022-09-23T15:15:41.885Z,999.90
2022-09-23T15:20:49.684Z,999.90
2022-09-23T15:25:53.024Z,999.90
2022-09-23T15:30:54.759Z,34.33
2022-09-23T15:35:56.512Z,520.50
2022-09-23T15:40:59.610Z,56.37
2022-09-23T15:46:05.983Z,23.58
2022-09-23T15:51:08.405Z,24.65
2022-09-23T15:56:11.486Z,999.90
2022-09-23T16:01:20.838Z,999.90
2022-09-23T16:06:23.144Z,999.90
2022-09-23T16:11:28.869Z,999.90
2022-09-23T16:16:31.088Z,999.90
2022-09-23T16:21:33.596Z,999.90
2022-09-23T16:26:36.998Z,999.90
2022-09-23T16:31:39.047Z,186.77
2022-09-23T16:36:43.185Z,20.00
2022-09-23T16:41:46.313Z,11.57
2022-09-23T16:46:48.005Z,5.95
2022-09-23T16:51:49.687Z,103.97
2022-09-23T16:56:52.735Z,6.40
2022-09-23T17:01:54.506Z,8.80
2022-09-23T17:06:56.234Z,7.12
2022-09-23T17:12:11.027Z,11.73
2022-09-23T17:17:12.738Z,78.77
2022-09-23T17:22:14.389Z,22.75
2022-09-23T17:27:17.538Z,44.95
2022-09-23T17:32:19.279Z,0.20
2022-09-23T17:37:21.035Z,0.20
2022-09-23T17:42:24.190Z,21.87
2022-09-23T17:47:26.157Z,50.33
2022-09-23T17:52:28.003Z,66.87
2022-09-23T17:57:31.191Z,89.80
2022-09-23T18:02:33.014Z,143.90
2022-09-23T18:07:34.761Z,236.12
2022-09-23T18:12:37.904Z,19.85
2022-09-23T18:17:39.705Z,4.32
2022-09-23T18:22:41.397Z,5.20
2022-09-23T18:27:44.450Z,10.20
2022-09-23T18:32:46.251Z,4.62
2022-09-23T18:37:48.156Z,15.60
2022-09-23T18:42:54.560Z,5.15
2022-09-23T18:48:02.673Z,5.18
2022-09-23T18:53:04.460Z,4.90
2022-09-23T18:58:07.567Z,4.87
2022-09-23T19:03:09.268Z,4.90
2022-09-23T19:08:11.797Z,5.30
2022-09-23T19:13:15.288Z,5.60
2022-09-23T19:18:16.996Z,5.62
2022-09-23T19:23:19.361Z,4.87
2022-09-23T19:28:22.621Z,5.72
2022-09-23T19:33:25.147Z,5.30
2022-09-23T19:38:26.933Z,5.35
2022-09-23T19:43:30.013Z,5.57
2022-09-23T19:48:31.683Z,5.07
2022-09-23T19:53:33.356Z,5.25
2022-09-23T19:58:36.404Z,5.43
2022-09-23T20:03:38.117Z,4.95
2022-09-23T20:08:40.187Z,5.03
2022-09-23T20:13:45.213Z,5.07
2022-09-23T20:18:51.401Z,6.10
2022-09-23T20:24:05.800Z,5.75
2022-09-23T20:29:08.967Z,5.22
2022-09-23T20:34:11.128Z,4.90
2022-09-23T20:39:13.307Z,5.53
2022-09-23T20:44:16.551Z,53.42
2022-09-23T20:49:18.483Z,29.30
2022-09-23T20:54:21.820Z,5.40
2022-09-23T20:59:26.526Z,4.97
2022-09-23T21:04:28.792Z,5.07
2022-09-23T21:09:30.571Z,5.68
2022-09-23T21:14:33.874Z,5.45
